sensor_id;sensor_type;location;lat;lon;timestamp;P1;durP1;ratioP1;P2;durP2;ratioP2
24467;SDS011;12634;50.852;5.676;2023-12-07T00:01:06;30.08;;;15.95;;
24467;SDS011;12634;50.852;5.676;2023-12-07T00:03:34;22.83;;;14.90;;
24467;SDS011;12634;50.852;5.676;2023-12-07T00:06:01;27.88;;;16.20;;
24467;SDS011;12634;50.852;5.676;2023-12-07T00:08:29;20.65;;;15.10;;
24467;SDS011;12634;50.852;5.676;2023-12-07T00:10:56;26.10;;;16.15;;
24467;SDS011;12634;50.852;5.676;2023-12-07T00:13:23;27.83;;;15.55;;
24467;SDS011;12634;50.852;5.676;2023-12-07T00:15:50;25.90;;;16.17;;
24467;SDS011;12634;50.852;5.676;2023-12-07T00:18:17;29.73;;;15.57;;
24467;SDS011;12634;50.852;5.676;2023-12-07T00:20:46;25.05;;;15.90;;
24467;SDS011;12634;50.852;5.676;2023-12-07T00:23:13;25.67;;;16.65;;
24467;SDS011;12634;50.852;5.676;2023-12-07T00:25:40;29.13;;;16.77;;
24467;SDS011;12634;50.852;5.676;2023-12-07T00:28:07;29.63;;;18.05;;
24467;SDS011;12634;50.852;5.676;2023-12-07T00:30:34;25.63;;;15.18;;
24467;SDS011;12634;50.852;5.676;2023-12-07T00:33:02;29.83;;;16.33;;
24467;SDS011;12634;50.852;5.676;2023-12-07T00:35:29;28.05;;;16.67;;
24467;SDS011;12634;50.852;5.676;2023-12-07T00:37:57;31.23;;;17.63;;
24467;SDS011;12634;50.852;5.676;2023-12-07T00:40:25;27.70;;;15.80;;
24467;SDS011;12634;50.852;5.676;2023-12-07T00:42:52;31.05;;;16.40;;
24467;SDS011;12634;50.852;5.676;2023-12-07T00:45:19;39.72;;;18.30;;
24467;SDS011;12634;50.852;5.676;2023-12-07T00:47:46;32.03;;;18.33;;
24467;SDS011;12634;50.852;5.676;2023-12-07T00:50:13;40.58;;;18.70;;
24467;SDS011;12634;50.852;5.676;2023-12-07T00:52:41;32.95;;;19.05;;
24467;SDS011;12634;50.852;5.676;2023-12-07T00:55:09;50.47;;;20.73;;
24467;SDS011;12634;50.852;5.676;2023-12-07T00:57:36;36.55;;;21.55;;
24467;SDS011;12634;50.852;5.676;2023-12-07T01:00:04;36.53;;;20.20;;
24467;SDS011;12634;50.852;5.676;2023-12-07T01:02:33;33.08;;;19.15;;
24467;SDS011;12634;50.852;5.676;2023-12-07T01:05:00;36.35;;;21.13;;
24467;SDS011;12634;50.852;5.676;2023-12-07T01:07:27;39.30;;;20.42;;
24467;SDS011;12634;50.852;5.676;2023-12-07T01:09:54;37.15;;;20.90;;
24467;SDS011;12634;50.852;5.676;2023-12-07T01:12:23;35.58;;;21.23;;
24467;SDS011;12634;50.852;5.676;2023-12-07T01:14:50;36.75;;;20.92;;
24467;SDS011;12634;50.852;5.676;2023-12-07T01:17:18;33.58;;;19.88;;
24467;SDS011;12634;50.852;5.676;2023-12-07T01:19:45;36.58;;;20.52;;
24467;SDS011;12634;50.852;5.676;2023-12-07T01:22:12;32.55;;;19.50;;
24467;SDS011;12634;50.852;5.676;2023-12-07T01:24:39;33.17;;;19.35;;
24467;SDS011;12634;50.852;5.676;2023-12-07T01:27:06;32.10;;;18.33;;
24467;SDS011;12634;50.852;5.676;2023-12-07T01:29:35;29.30;;;17.13;;
24467;SDS011;12634;50.852;5.676;2023-12-07T01:32:02;34.30;;;18.50;;
24467;SDS011;12634;50.852;5.676;2023-12-07T01:34:31;26.55;;;15.57;;
24467;SDS011;12634;50.852;5.676;2023-12-07T01:36:58;30.90;;;17.92;;
24467;SDS011;12634;50.852;5.676;2023-12-07T01:39:26;30.15;;;17.30;;
24467;SDS011;12634;50.852;5.676;2023-12-07T01:41:53;29.15;;;17.00;;
24467;SDS011;12634;50.852;5.676;2023-12-07T01:44:20;28.45;;;17.33;;
24467;SDS011;12634;50.852;5.676;2023-12-07T01:46:49;28.13;;;16.02;;
24467;SDS011;12634;50.852;5.676;2023-12-07T01:49:16;31.45;;;17.85;;
24467;SDS011;12634;50.852;5.676;2023-12-07T01:51:45;28.88;;;15.75;;
24467;SDS011;12634;50.852;5.676;2023-12-07T01:54:12;26.83;;;16.35;;
24467;SDS011;12634;50.852;5.676;2023-12-07T01:56:39;28.35;;;16.13;;
24467;SDS011;12634;50.852;5.676;2023-12-07T01:59:07;28.50;;;15.30;;
24467;SDS011;12634;50.852;5.676;2023-12-07T02:01:34;30.75;;;16.40;;
24467;SDS011;12634;50.852;5.676;2023-12-07T02:04:03;26.50;;;16.10;;
24467;SDS011;12634;50.852;5.676;2023-12-07T02:06:30;26.45;;;15.45;;
24467;SDS011;12634;50.852;5.676;2023-12-07T02:08:57;31.70;;;16.70;;
24467;SDS011;12634;50.852;5.676;2023-12-07T02:11:25;26.40;;;16.00;;
24467;SDS011;12634;50.852;5.676;2023-12-07T02:13:52;24.70;;;15.95;;
24467;SDS011;12634;50.852;5.676;2023-12-07T02:16:23;24.05;;;14.75;;
24467;SDS011;12634;50.852;5.676;2023-12-07T02:19:07;21.88;;;14.60;;
24467;SDS011;12634;50.852;5.676;2023-12-07T02:21:50;21.30;;;13.75;;
24467;SDS011;12634;50.852;5.676;2023-12-07T02:24:22;22.88;;;14.18;;
24467;SDS011;12634;50.852;5.676;2023-12-07T02:26:55;20.23;;;13.75;;
24467;SDS011;12634;50.852;5.676;2023-12-07T02:29:22;22.30;;;12.52;;
24467;SDS011;12634;50.852;5.676;2023-12-07T02:31:49;23.08;;;13.70;;
24467;SDS011;12634;50.852;5.676;2023-12-07T02:34:17;21.23;;;13.60;;
24467;SDS011;12634;50.852;5.676;2023-12-07T02:36:44;20.38;;;12.48;;
24467;SDS011;12634;50.852;5.676;2023-12-07T02:39:14;19.35;;;13.02;;
24467;SDS011;12634;50.852;5.676;2023-12-07T02:41:42;18.80;;;12.70;;
24467;SDS011;12634;50.852;5.676;2023-12-07T02:44:13;20.77;;;14.38;;
24467;SDS011;12634;50.852;5.676;2023-12-07T02:46:41;21.17;;;13.07;;
24467;SDS011;12634;50.852;5.676;2023-12-07T02:49:08;21.05;;;13.60;;
24467;SDS011;12634;50.852;5.676;2023-12-07T02:51:36;22.92;;;14.43;;
24467;SDS011;12634;50.852;5.676;2023-12-07T02:54:03;21.63;;;13.95;;
24467;SDS011;12634;50.852;5.676;2023-12-07T02:56:30;23.73;;;12.65;;
24467;SDS011;12634;50.852;5.676;2023-12-07T02:58:57;23.38;;;13.85;;
24467;SDS011;12634;50.852;5.676;2023-12-07T03:01:26;20.65;;;12.63;;
24467;SDS011;12634;50.852;5.676;2023-12-07T03:03:53;18.60;;;11.70;;
24467;SDS011;12634;50.852;5.676;2023-12-07T03:06:20;19.55;;;12.75;;
24467;SDS011;12634;50.852;5.676;2023-12-07T03:08:47;21.58;;;12.45;;
24467;SDS011;12634;50.852;5.676;2023-12-07T03:11:14;20.45;;;12.75;;
24467;SDS011;12634;50.852;5.676;2023-12-07T03:13:41;19.48;;;12.93;;
24467;SDS011;12634;50.852;5.676;2023-12-07T03:16:09;22.45;;;12.57;;
24467;SDS011;12634;50.852;5.676;2023-12-07T03:18:37;21.95;;;12.85;;
24467;SDS011;12634;50.852;5.676;2023-12-07T03:21:05;19.50;;;12.05;;
24467;SDS011;12634;50.852;5.676;2023-12-07T03:23:32;20.33;;;12.93;;
24467;SDS011;12634;50.852;5.676;2023-12-07T03:26:00;20.58;;;12.60;;
24467;SDS011;12634;50.852;5.676;2023-12-07T03:28:27;22.55;;;12.70;;
24467;SDS011;12634;50.852;5.676;2023-12-07T03:30:55;19.25;;;12.60;;
24467;SDS011;12634;50.852;5.676;2023-12-07T03:33:22;18.50;;;12.05;;
24467;SDS011;12634;50.852;5.676;2023-12-07T03:35:50;20.17;;;12.43;;
24467;SDS011;12634;50.852;5.676;2023-12-07T03:38:18;17.23;;;10.80;;
24467;SDS011;12634;50.852;5.676;2023-12-07T03:40:45;15.70;;;10.98;;
24467;SDS011;12634;50.852;5.676;2023-12-07T03:43:13;19.75;;;11.00;;
24467;SDS011;12634;50.852;5.676;2023-12-07T03:45:40;17.35;;;10.73;;
24467;SDS011;12634;50.852;5.676;2023-12-07T03:48:07;22.67;;;12.55;;
24467;SDS011;12634;50.852;5.676;2023-12-07T03:50:35;24.00;;;13.15;;
24467;SDS011;12634;50.852;5.676;2023-12-07T03:53:04;19.08;;;11.88;;
24467;SDS011;12634;50.852;5.676;2023-12-07T03:55:31;19.75;;;12.18;;
24467;SDS011;12634;50.852;5.676;2023-12-07T03:57:58;21.80;;;12.88;;
24467;SDS011;12634;50.852;5.676;2023-12-07T04:00:25;18.58;;;11.40;;
24467;SDS011;12634;50.852;5.676;2023-12-07T04:02:53;16.10;;;10.75;;
24467;SDS011;12634;50.852;5.676;2023-12-07T04:05:20;17.35;;;10.85;;
24467;SDS011;12634;50.852;5.676;2023-12-07T04:07:47;19.02;;;11.18;;
24467;SDS011;12634;50.852;5.676;2023-12-07T04:10:15;15.48;;;10.40;;
24467;SDS011;12634;50.852;5.676;2023-12-07T04:12:42;16.00;;;10.43;;
24467;SDS011;12634;50.852;5.676;2023-12-07T04:15:10;18.15;;;10.93;;
24467;SDS011;12634;50.852;5.676;2023-12-07T04:17:37;16.90;;;11.82;;
24467;SDS011;12634;50.852;5.676;2023-12-07T04:20:04;15.85;;;10.77;;
24467;SDS011;12634;50.852;5.676;2023-12-07T04:22:32;18.45;;;12.00;;
24467;SDS011;12634;50.852;5.676;2023-12-07T04:24:59;15.13;;;10.18;;
24467;SDS011;12634;50.852;5.676;2023-12-07T04:27:28;13.98;;;10.13;;
24467;SDS011;12634;50.852;5.676;2023-12-07T04:29:55;18.45;;;11.45;;
24467;SDS011;12634;50.852;5.676;2023-12-07T04:32:23;18.85;;;12.20;;
24467;SDS011;12634;50.852;5.676;2023-12-07T04:34:50;16.90;;;10.05;;
24467;SDS011;12634;50.852;5.676;2023-12-07T04:37:17;16.23;;;11.82;;
24467;SDS011;12634;50.852;5.676;2023-12-07T04:39:45;16.35;;;11.23;;
24467;SDS011;12634;50.852;5.676;2023-12-07T04:42:12;18.33;;;11.45;;
24467;SDS011;12634;50.852;5.676;2023-12-07T04:44:40;16.25;;;11.35;;
24467;SDS011;12634;50.852;5.676;2023-12-07T04:47:07;17.45;;;11.63;;
24467;SDS011;12634;50.852;5.676;2023-12-07T04:49:34;16.30;;;10.30;;
24467;SDS011;12634;50.852;5.676;2023-12-07T04:52:02;16.27;;;10.38;;
24467;SDS011;12634;50.852;5.676;2023-12-07T04:54:29;15.80;;;10.00;;
24467;SDS011;12634;50.852;5.676;2023-12-07T04:56:56;14.52;;;9.57;;
24467;SDS011;12634;50.852;5.676;2023-12-07T04:59:23;11.63;;;7.88;;
24467;SDS011;12634;50.852;5.676;2023-12-07T05:01:52;16.42;;;9.98;;
24467;SDS011;12634;50.852;5.676;2023-12-07T05:04:19;15.10;;;10.55;;
24467;SDS011;12634;50.852;5.676;2023-12-07T05:06:46;17.40;;;10.02;;
24467;SDS011;12634;50.852;5.676;2023-12-07T05:09:13;14.05;;;9.77;;
24467;SDS011;12634;50.852;5.676;2023-12-07T05:11:40;13.95;;;9.20;;
24467;SDS011;12634;50.852;5.676;2023-12-07T05:14:10;13.73;;;9.27;;
24467;SDS011;12634;50.852;5.676;2023-12-07T05:16:37;13.35;;;8.90;;
24467;SDS011;12634;50.852;5.676;2023-12-07T05:19:07;14.05;;;9.43;;
24467;SDS011;12634;50.852;5.676;2023-12-07T05:21:34;14.05;;;9.68;;
24467;SDS011;12634;50.852;5.676;2023-12-07T05:24:01;17.08;;;8.93;;
24467;SDS011;12634;50.852;5.676;2023-12-07T05:26:29;12.50;;;8.25;;
24467;SDS011;12634;50.852;5.676;2023-12-07T05:28:58;13.70;;;9.27;;
24467;SDS011;12634;50.852;5.676;2023-12-07T05:31:25;14.35;;;9.55;;
24467;SDS011;12634;50.852;5.676;2023-12-07T05:33:52;14.57;;;10.13;;
24467;SDS011;12634;50.852;5.676;2023-12-07T05:36:21;17.23;;;10.27;;
24467;SDS011;12634;50.852;5.676;2023-12-07T05:38:48;13.52;;;9.60;;
24467;SDS011;12634;50.852;5.676;2023-12-07T05:41:15;15.45;;;9.23;;
24467;SDS011;12634;50.852;5.676;2023-12-07T05:43:42;14.98;;;8.73;;
24467;SDS011;12634;50.852;5.676;2023-12-07T05:46:09;12.65;;;8.95;;
24467;SDS011;12634;50.852;5.676;2023-12-07T05:48:37;15.30;;;8.77;;
24467;SDS011;12634;50.852;5.676;2023-12-07T05:51:04;12.77;;;8.88;;
24467;SDS011;12634;50.852;5.676;2023-12-07T05:53:33;11.77;;;8.32;;
24467;SDS011;12634;50.852;5.676;2023-12-07T05:56:00;10.85;;;7.50;;
24467;SDS011;12634;50.852;5.676;2023-12-07T05:58:27;11.57;;;7.10;;
24467;SDS011;12634;50.852;5.676;2023-12-07T06:00:55;12.00;;;7.43;;
24467;SDS011;12634;50.852;5.676;2023-12-07T06:03:22;13.15;;;8.23;;
24467;SDS011;12634;50.852;5.676;2023-12-07T06:05:51;12.02;;;7.80;;
24467;SDS011;12634;50.852;5.676;2023-12-07T06:08:18;12.55;;;8.07;;
24467;SDS011;12634;50.852;5.676;2023-12-07T06:10:46;11.45;;;8.25;;
24467;SDS011;12634;50.852;5.676;2023-12-07T06:13:14;15.10;;;8.80;;
24467;SDS011;12634;50.852;5.676;2023-12-07T06:15:41;16.80;;;8.43;;
24467;SDS011;12634;50.852;5.676;2023-12-07T06:18:08;11.35;;;8.70;;
24467;SDS011;12634;50.852;5.676;2023-12-07T06:20:35;11.07;;;7.90;;
24467;SDS011;12634;50.852;5.676;2023-12-07T06:23:02;13.82;;;8.70;;
24467;SDS011;12634;50.852;5.676;2023-12-07T06:25:32;11.88;;;7.85;;
24467;SDS011;12634;50.852;5.676;2023-12-07T06:28:00;11.82;;;8.27;;
24467;SDS011;12634;50.852;5.676;2023-12-07T06:30:28;10.45;;;7.72;;
24467;SDS011;12634;50.852;5.676;2023-12-07T06:32:56;11.00;;;8.13;;
24467;SDS011;12634;50.852;5.676;2023-12-07T06:35:23;11.75;;;7.65;;
24467;SDS011;12634;50.852;5.676;2023-12-07T06:37:50;11.77;;;7.97;;
24467;SDS011;12634;50.852;5.676;2023-12-07T06:40:17;10.00;;;6.55;;
24467;SDS011;12634;50.852;5.676;2023-12-07T06:42:45;11.60;;;7.78;;
24467;SDS011;12634;50.852;5.676;2023-12-07T06:45:14;8.95;;;6.65;;
24467;SDS011;12634;50.852;5.676;2023-12-07T06:47:41;11.10;;;7.68;;
24467;SDS011;12634;50.852;5.676;2023-12-07T06:50:09;11.05;;;7.00;;
24467;SDS011;12634;50.852;5.676;2023-12-07T06:52:36;10.50;;;7.57;;
24467;SDS011;12634;50.852;5.676;2023-12-07T06:55:04;10.73;;;7.38;;
24467;SDS011;12634;50.852;5.676;2023-12-07T06:57:34;10.68;;;7.15;;
24467;SDS011;12634;50.852;5.676;2023-12-07T07:00:01;10.52;;;7.57;;
24467;SDS011;12634;50.852;5.676;2023-12-07T07:02:32;11.00;;;7.45;;
24467;SDS011;12634;50.852;5.676;2023-12-07T07:04:59;9.63;;;7.00;;
24467;SDS011;12634;50.852;5.676;2023-12-07T07:07:26;9.80;;;6.55;;
24467;SDS011;12634;50.852;5.676;2023-12-07T07:09:56;11.65;;;7.28;;
24467;SDS011;12634;50.852;5.676;2023-12-07T07:12:24;10.35;;;7.03;;
24467;SDS011;12634;50.852;5.676;2023-12-07T07:14:51;12.27;;;7.35;;
24467;SDS011;12634;50.852;5.676;2023-12-07T07:17:19;10.77;;;7.43;;
24467;SDS011;12634;50.852;5.676;2023-12-07T07:19:47;9.95;;;7.10;;
24467;SDS011;12634;50.852;5.676;2023-12-07T07:22:14;8.32;;;6.47;;
24467;SDS011;12634;50.852;5.676;2023-12-07T07:24:42;10.48;;;6.20;;
24467;SDS011;12634;50.852;5.676;2023-12-07T07:27:09;9.65;;;6.35;;
24467;SDS011;12634;50.852;5.676;2023-12-07T07:29:36;12.00;;;6.78;;
24467;SDS011;12634;50.852;5.676;2023-12-07T07:32:03;9.23;;;6.93;;
24467;SDS011;12634;50.852;5.676;2023-12-07T07:34:32;9.43;;;6.07;;
24467;SDS011;12634;50.852;5.676;2023-12-07T07:37:00;10.38;;;6.80;;
24467;SDS011;12634;50.852;5.676;2023-12-07T07:39:28;9.75;;;6.63;;
24467;SDS011;12634;50.852;5.676;2023-12-07T07:41:55;8.50;;;6.10;;
24467;SDS011;12634;50.852;5.676;2023-12-07T07:44:23;10.07;;;6.45;;
24467;SDS011;12634;50.852;5.676;2023-12-07T07:46:50;11.13;;;6.82;;
24467;SDS011;12634;50.852;5.676;2023-12-07T07:49:17;8.48;;;5.97;;
24467;SDS011;12634;50.852;5.676;2023-12-07T07:51:44;9.05;;;6.18;;
24467;SDS011;12634;50.852;5.676;2023-12-07T07:54:13;8.85;;;5.82;;
24467;SDS011;12634;50.852;5.676;2023-12-07T07:56:40;9.25;;;5.82;;
24467;SDS011;12634;50.852;5.676;2023-12-07T07:59:09;9.10;;;6.00;;
24467;SDS011;12634;50.852;5.676;2023-12-07T08:01:36;8.30;;;6.15;;
24467;SDS011;12634;50.852;5.676;2023-12-07T08:04:03;8.40;;;6.30;;
24467;SDS011;12634;50.852;5.676;2023-12-07T08:06:30;8.35;;;5.97;;
24467;SDS011;12634;50.852;5.676;2023-12-07T08:08:58;8.40;;;6.40;;
24467;SDS011;12634;50.852;5.676;2023-12-07T08:11:26;10.10;;;6.65;;
24467;SDS011;12634;50.852;5.676;2023-12-07T08:13:54;13.68;;;6.85;;
24467;SDS011;12634;50.852;5.676;2023-12-07T08:16:21;9.80;;;6.35;;
24467;SDS011;12634;50.852;5.676;2023-12-07T08:18:48;9.77;;;6.22;;
24467;SDS011;12634;50.852;5.676;2023-12-07T08:21:19;10.73;;;6.70;;
24467;SDS011;12634;50.852;5.676;2023-12-07T08:23:47;9.68;;;6.03;;
24467;SDS011;12634;50.852;5.676;2023-12-07T08:26:14;8.45;;;5.70;;
24467;SDS011;12634;50.852;5.676;2023-12-07T08:28:43;10.15;;;6.30;;
24467;SDS011;12634;50.852;5.676;2023-12-07T08:31:10;9.07;;;6.38;;
24467;SDS011;12634;50.852;5.676;2023-12-07T08:33:37;8.77;;;6.22;;
24467;SDS011;12634;50.852;5.676;2023-12-07T08:36:05;8.18;;;6.00;;
24467;SDS011;12634;50.852;5.676;2023-12-07T08:38:33;8.70;;;5.97;;
24467;SDS011;12634;50.852;5.676;2023-12-07T08:41:00;8.88;;;6.30;;
24467;SDS011;12634;50.852;5.676;2023-12-07T08:43:28;8.65;;;6.47;;
24467;SDS011;12634;50.852;5.676;2023-12-07T08:45:57;8.07;;;5.93;;
24467;SDS011;12634;50.852;5.676;2023-12-07T08:48:24;10.23;;;6.15;;
24467;SDS011;12634;50.852;5.676;2023-12-07T08:50:51;9.00;;;5.63;;
24467;SDS011;12634;50.852;5.676;2023-12-07T08:53:18;7.82;;;4.82;;
24467;SDS011;12634;50.852;5.676;2023-12-07T08:55:45;8.18;;;4.72;;
24467;SDS011;12634;50.852;5.676;2023-12-07T08:58:12;7.75;;;5.03;;
24467;SDS011;12634;50.852;5.676;2023-12-07T09:00:40;9.40;;;5.03;;
24467;SDS011;12634;50.852;5.676;2023-12-07T09:03:08;7.38;;;4.88;;
24467;SDS011;12634;50.852;5.676;2023-12-07T09:05:35;8.65;;;5.07;;
24467;SDS011;12634;50.852;5.676;2023-12-07T09:08:03;7.55;;;5.43;;
24467;SDS011;12634;50.852;5.676;2023-12-07T09:10:30;7.68;;;5.35;;
24467;SDS011;12634;50.852;5.676;2023-12-07T09:12:57;8.60;;;4.78;;
24467;SDS011;12634;50.852;5.676;2023-12-07T09:15:25;6.45;;;4.55;;
24467;SDS011;12634;50.852;5.676;2023-12-07T09:17:52;6.72;;;4.63;;
24467;SDS011;12634;50.852;5.676;2023-12-07T09:20:21;6.82;;;4.50;;
24467;SDS011;12634;50.852;5.676;2023-12-07T09:22:48;8.25;;;4.78;;
24467;SDS011;12634;50.852;5.676;2023-12-07T09:25:15;6.80;;;4.20;;
24467;SDS011;12634;50.852;5.676;2023-12-07T09:27:43;6.30;;;4.13;;
24467;SDS011;12634;50.852;5.676;2023-12-07T09:30:10;9.25;;;5.65;;
24467;SDS011;12634;50.852;5.676;2023-12-07T09:32:38;8.60;;;4.85;;
24467;SDS011;12634;50.852;5.676;2023-12-07T09:35:08;7.90;;;5.20;;
24467;SDS011;12634;50.852;5.676;2023-12-07T09:37:41;7.65;;;4.80;;
24467;SDS011;12634;50.852;5.676;2023-12-07T09:40:09;6.93;;;4.68;;
24467;SDS011;12634;50.852;5.676;2023-12-07T09:42:42;6.28;;;4.25;;
24467;SDS011;12634;50.852;5.676;2023-12-07T09:45:10;8.10;;;5.03;;
24467;SDS011;12634;50.852;5.676;2023-12-07T09:47:38;6.95;;;4.05;;
24467;SDS011;12634;50.852;5.676;2023-12-07T09:50:08;6.70;;;4.82;;
24467;SDS011;12634;50.852;5.676;2023-12-07T09:52:37;7.05;;;4.40;;
24467;SDS011;12634;50.852;5.676;2023-12-07T09:55:07;7.45;;;4.60;;
24467;SDS011;12634;50.852;5.676;2023-12-07T09:57:35;7.10;;;4.70;;
24467;SDS011;12634;50.852;5.676;2023-12-07T10:00:04;6.82;;;5.10;;
24467;SDS011;12634;50.852;5.676;2023-12-07T10:02:36;6.75;;;4.43;;
24467;SDS011;12634;50.852;5.676;2023-12-07T10:05:04;6.88;;;4.45;;
24467;SDS011;12634;50.852;5.676;2023-12-07T10:07:32;7.78;;;4.90;;
24467;SDS011;12634;50.852;5.676;2023-12-07T10:10:02;6.28;;;4.45;;
24467;SDS011;12634;50.852;5.676;2023-12-07T10:12:31;7.82;;;5.50;;
24467;SDS011;12634;50.852;5.676;2023-12-07T10:14:59;7.25;;;4.95;;
24467;SDS011;12634;50.852;5.676;2023-12-07T10:17:43;6.72;;;4.65;;
24467;SDS011;12634;50.852;5.676;2023-12-07T10:20:13;6.57;;;4.75;;
24467;SDS011;12634;50.852;5.676;2023-12-07T10:22:42;8.85;;;4.90;;
24467;SDS011;12634;50.852;5.676;2023-12-07T10:25:10;7.28;;;4.70;;
24467;SDS011;12634;50.852;5.676;2023-12-07T10:27:40;8.52;;;4.60;;
24467;SDS011;12634;50.852;5.676;2023-12-07T10:30:09;6.10;;;4.25;;
24467;SDS011;12634;50.852;5.676;2023-12-07T10:32:37;7.18;;;4.68;;
24467;SDS011;12634;50.852;5.676;2023-12-07T10:35:08;6.45;;;4.28;;
24467;SDS011;12634;50.852;5.676;2023-12-07T10:37:36;7.57;;;4.93;;
24467;SDS011;12634;50.852;5.676;2023-12-07T10:40:04;8.85;;;5.18;;
24467;SDS011;12634;50.852;5.676;2023-12-07T10:42:33;8.20;;;4.57;;
24467;SDS011;12634;50.852;5.676;2023-12-07T10:45:05;9.30;;;5.07;;
24467;SDS011;12634;50.852;5.676;2023-12-07T10:47:35;5.90;;;3.83;;
24467;SDS011;12634;50.852;5.676;2023-12-07T10:50:05;8.07;;;4.85;;
24467;SDS011;12634;50.852;5.676;2023-12-07T10:52:39;6.93;;;4.72;;
24467;SDS011;12634;50.852;5.676;2023-12-07T10:55:13;8.07;;;4.55;;
24467;SDS011;12634;50.852;5.676;2023-12-07T10:57:43;5.75;;;4.05;;
24467;SDS011;12634;50.852;5.676;2023-12-07T11:00:13;7.57;;;5.18;;
24467;SDS011;12634;50.852;5.676;2023-12-07T11:02:41;6.47;;;4.65;;
24467;SDS011;12634;50.852;5.676;2023-12-07T11:05:10;8.32;;;5.53;;
24467;SDS011;12634;50.852;5.676;2023-12-07T11:07:41;6.38;;;4.53;;
24467;SDS011;12634;50.852;5.676;2023-12-07T11:10:17;6.60;;;4.43;;
24467;SDS011;12634;50.852;5.676;2023-12-07T11:12:53;7.30;;;4.70;;
24467;SDS011;12634;50.852;5.676;2023-12-07T11:15:29;6.75;;;4.72;;
24467;SDS011;12634;50.852;5.676;2023-12-07T11:17:56;7.78;;;4.88;;
24467;SDS011;12634;50.852;5.676;2023-12-07T11:20:31;9.35;;;4.55;;
24467;SDS011;12634;50.852;5.676;2023-12-07T11:23:06;8.88;;;4.82;;
24467;SDS011;12634;50.852;5.676;2023-12-07T11:25:34;8.32;;;4.72;;
24467;SDS011;12634;50.852;5.676;2023-12-07T11:28:01;7.28;;;4.55;;
24467;SDS011;12634;50.852;5.676;2023-12-07T11:30:31;7.32;;;5.18;;
24467;SDS011;12634;50.852;5.676;2023-12-07T11:33:01;6.53;;;3.70;;
24467;SDS011;12634;50.852;5.676;2023-12-07T11:35:30;7.72;;;4.75;;
24467;SDS011;12634;50.852;5.676;2023-12-07T11:38:05;7.05;;;4.53;;
24467;SDS011;12634;50.852;5.676;2023-12-07T11:40:37;7.10;;;4.53;;
24467;SDS011;12634;50.852;5.676;2023-12-07T11:43:07;6.93;;;4.47;;
24467;SDS011;12634;50.852;5.676;2023-12-07T11:45:40;7.30;;;3.92;;
24467;SDS011;12634;50.852;5.676;2023-12-07T11:48:09;7.93;;;4.60;;
24467;SDS011;12634;50.852;5.676;2023-12-07T11:50:52;6.57;;;4.28;;
24467;SDS011;12634;50.852;5.676;2023-12-07T11:53:23;7.63;;;3.72;;
24467;SDS011;12634;50.852;5.676;2023-12-07T11:55:51;5.65;;;4.00;;
24467;SDS011;12634;50.852;5.676;2023-12-07T11:58:18;6.65;;;4.05;;
24467;SDS011;12634;50.852;5.676;2023-12-07T12:00:47;7.50;;;3.83;;
24467;SDS011;12634;50.852;5.676;2023-12-07T12:03:17;8.25;;;4.15;;
24467;SDS011;12634;50.852;5.676;2023-12-07T12:05:45;6.57;;;3.80;;
24467;SDS011;12634;50.852;5.676;2023-12-07T12:08:12;6.03;;;3.72;;
24467;SDS011;12634;50.852;5.676;2023-12-07T12:10:40;6.22;;;3.80;;
24467;SDS011;12634;50.852;5.676;2023-12-07T12:13:08;5.95;;;3.83;;
24467;SDS011;12634;50.852;5.676;2023-12-07T12:15:37;6.72;;;3.55;;
24467;SDS011;12634;50.852;5.676;2023-12-07T12:18:07;6.90;;;4.00;;
24467;SDS011;12634;50.852;5.676;2023-12-07T12:20:35;6.85;;;3.75;;
24467;SDS011;12634;50.852;5.676;2023-12-07T12:23:02;7.55;;;3.88;;
24467;SDS011;12634;50.852;5.676;2023-12-07T12:25:30;6.75;;;3.45;;
24467;SDS011;12634;50.852;5.676;2023-12-07T12:27:59;5.43;;;3.15;;
24467;SDS011;12634;50.852;5.676;2023-12-07T12:30:28;5.70;;;3.28;;
24467;SDS011;12634;50.852;5.676;2023-12-07T12:32:57;5.57;;;2.95;;
24467;SDS011;12634;50.852;5.676;2023-12-07T12:35:26;4.38;;;2.67;;
24467;SDS011;12634;50.852;5.676;2023-12-07T12:37:54;5.32;;;3.15;;
24467;SDS011;12634;50.852;5.676;2023-12-07T12:40:22;7.60;;;3.90;;
24467;SDS011;12634;50.852;5.676;2023-12-07T12:42:51;6.10;;;3.22;;
24467;SDS011;12634;50.852;5.676;2023-12-07T12:45:18;4.70;;;3.10;;
24467;SDS011;12634;50.852;5.676;2023-12-07T12:47:46;6.28;;;3.22;;
24467;SDS011;12634;50.852;5.676;2023-12-07T12:53:02;5.30;;;2.80;;
24467;SDS011;12634;50.852;5.676;2023-12-07T12:55:32;5.20;;;3.03;;
24467;SDS011;12634;50.852;5.676;2023-12-07T12:58:00;6.40;;;3.47;;
24467;SDS011;12634;50.852;5.676;2023-12-07T13:00:29;5.38;;;3.38;;
24467;SDS011;12634;50.852;5.676;2023-12-07T13:02:58;5.30;;;3.42;;
24467;SDS011;12634;50.852;5.676;2023-12-07T13:05:25;5.22;;;3.53;;
24467;SDS011;12634;50.852;5.676;2023-12-07T13:07:54;5.38;;;3.40;;
24467;SDS011;12634;50.852;5.676;2023-12-07T13:10:22;5.18;;;3.10;;
24467;SDS011;12634;50.852;5.676;2023-12-07T13:12:49;6.28;;;3.53;;
24467;SDS011;12634;50.852;5.676;2023-12-07T13:15:16;5.13;;;3.28;;
24467;SDS011;12634;50.852;5.676;2023-12-07T13:17:43;6.95;;;2.95;;
24467;SDS011;12634;50.852;5.676;2023-12-07T13:20:11;6.72;;;3.40;;
24467;SDS011;12634;50.852;5.676;2023-12-07T13:22:39;9.88;;;3.45;;
24467;SDS011;12634;50.852;5.676;2023-12-07T13:25:10;6.47;;;3.67;;
24467;SDS011;12634;50.852;5.676;2023-12-07T13:27:39;5.07;;;3.65;;
24467;SDS011;12634;50.852;5.676;2023-12-07T13:30:08;4.43;;;3.15;;
24467;SDS011;12634;50.852;5.676;2023-12-07T13:32:36;6.32;;;3.55;;
24467;SDS011;12634;50.852;5.676;2023-12-07T13:35:03;7.60;;;3.53;;
24467;SDS011;12634;50.852;5.676;2023-12-07T13:37:31;8.05;;;3.72;;
24467;SDS011;12634;50.852;5.676;2023-12-07T13:39:59;7.38;;;3.60;;
24467;SDS011;12634;50.852;5.676;2023-12-07T13:42:30;9.48;;;3.92;;
24467;SDS011;12634;50.852;5.676;2023-12-07T13:44:58;5.20;;;3.40;;
24467;SDS011;12634;50.852;5.676;2023-12-07T13:47:26;5.13;;;3.13;;
24467;SDS011;12634;50.852;5.676;2023-12-07T13:49:56;5.43;;;3.03;;
24467;SDS011;12634;50.852;5.676;2023-12-07T13:52:24;5.03;;;2.85;;
24467;SDS011;12634;50.852;5.676;2023-12-07T13:54:53;8.43;;;3.10;;
24467;SDS011;12634;50.852;5.676;2023-12-07T13:57:21;6.50;;;2.78;;
24467;SDS011;12634;50.852;5.676;2023-12-07T13:59:51;3.90;;;2.45;;
24467;SDS011;12634;50.852;5.676;2023-12-07T14:02:19;5.88;;;3.10;;
24467;SDS011;12634;50.852;5.676;2023-12-07T14:04:46;6.30;;;3.05;;
24467;SDS011;12634;50.852;5.676;2023-12-07T14:07:15;4.65;;;2.90;;
24467;SDS011;12634;50.852;5.676;2023-12-07T14:09:44;5.95;;;2.83;;
24467;SDS011;12634;50.852;5.676;2023-12-07T14:12:13;5.20;;;3.10;;
24467;SDS011;12634;50.852;5.676;2023-12-07T14:14:40;5.22;;;3.28;;
24467;SDS011;12634;50.852;5.676;2023-12-07T14:17:07;5.28;;;3.25;;
24467;SDS011;12634;50.852;5.676;2023-12-07T14:19:35;6.10;;;3.10;;
24467;SDS011;12634;50.852;5.676;2023-12-07T14:22:03;6.93;;;3.30;;
24467;SDS011;12634;50.852;5.676;2023-12-07T14:24:30;5.13;;;2.92;;
24467;SDS011;12634;50.852;5.676;2023-12-07T14:26:58;5.53;;;3.50;;
24467;SDS011;12634;50.852;5.676;2023-12-07T14:29:25;5.63;;;3.20;;
24467;SDS011;12634;50.852;5.676;2023-12-07T14:31:52;8.73;;;3.80;;
24467;SDS011;12634;50.852;5.676;2023-12-07T14:34:21;4.30;;;2.65;;
24467;SDS011;12634;50.852;5.676;2023-12-07T14:36:49;6.07;;;3.00;;
24467;SDS011;12634;50.852;5.676;2023-12-07T14:39:16;6.97;;;3.47;;
24467;SDS011;12634;50.852;5.676;2023-12-07T14:41:44;5.65;;;2.85;;
24467;SDS011;12634;50.852;5.676;2023-12-07T14:44:13;6.03;;;3.40;;